Shawanee, Tennessee
Current Conditions -  °F | °C
As of 9:55 AM on Sunday 21 Dec 2014 (Local Time) from K1A6 Reporting Station
Haze Haze  
Wind Chill: 26°   Ceiling: 200
Heat Index: 26°   Visibility: 1.2mi
Dew Point: 26°   Wind: 0mph
Humidity: 100%   Direction: NA
Pressure: 30.29"   Gusts: NA
Location:  36.58°N, 83.64°W
Report Text: K1A6 211455Z AUTO 00000KT 1 1/4SM BR BKN002 M03/M03 A3029 RMK AO2 T10321032
Loading
Personal Weather Stations






























Interactive Weather Map New forecast layout! Learn more

10-Day Weather Forecast

Advertisements
Track Severe Weather on mobile